Impacts METAR Board
IDs:

KIAH - Houston/Bush Intl, TX, US

Updated at: 2300 UTC 19 Jul 2018
Potential Impact None Slight Moderate High
Time 19/11Z 19/12Z 19/13Z 19/14Z 19/15Z 19/16Z 19/17Z 19/18Z 19/19Z 19/20Z 19/21Z 19/22Z 19/23Z
Temp80 80 81 83 86 89 91 93 94 97 98 97 97
Dewpt78 78 78 78 77 76 77 75 74 72 70 72 70
Altim29.93 29.94 29.96 29.96 29.96 29.96 29.96 29.95 29.93 29.91 29.90 29.88 29.87
VIS10 10 7 7 10 10 10 10 10 10 10 10 10
CIG14 -- 160 15 250 -- -- -- -- -- -- -- --
CoverBKNSCTBKNBKNBKNSCTSCTFEWSCTFEWSCTSCTSCT
FltCatMVFRVFRVFRMVFRVFRVFRVFRVFRVFRVFRVFRVFRVFR
WX--------------------------
WDir2102302402402302502602702302000240180
WSpd5 5 4 8 6 7 7 9 8 8 4 6 5
WGst-- -- -- -- -- -- -- -- -- -- -- -- --
Raw hourly METARs
KIAH 191053Z 21005KT 10SM BKN014 BKN250 27/26 A2993 RMK AO2 SLP134 T02670256
KIAH 191153Z 23005KT 10SM FEW012 SCT150 SCT250 27/26 A2994 RMK AO2 SLP138 T02670256 10278 20267 53008
KIAH 191253Z 24004KT 7SM SCT015 BKN160 BKN250 27/26 A2996 RMK AO2 SLP142 T02720256
KIAH 191353Z 24008KT 7SM BKN015 BKN160 BKN250 28/26 A2996 RMK AO2 SLP144 T02830256
KIAH 191453Z 23006KT 10SM SCT020 SCT160 BKN250 30/25 A2996 RMK AO2 SLP145 T03000250 51008
KIAH 191553Z 25007KT 10SM FEW025 SCT160 SCT250 32/24 A2996 RMK AO2 SLP145 T03170244
KIAH 191653Z 26007KT 10SM FEW030 SCT160 SCT250 33/25 A2996 RMK AO2 SLP144 T03280250
KIAH 191753Z 27009KT 10SM FEW035 FEW160 34/24 A2995 RMK AO2 SLP140 T03390239 10339 20267 58005
KIAH 191853Z 23008KT 10SM FEW040 SCT160 SCT250 34/23 A2993 RMK AO2 SLP134 T03440233
KIAH 191953Z 20008KT 170V250 10SM FEW050 FEW170 FEW250 36/22 A2991 RMK AO2 SLP128 T03610222
KIAH 192053Z VRB04KT 10SM FEW055 FEW180 SCT250 37/21 A2990 RMK AO2 SLP124 T03670211 56017
KIAH 192153Z 24006KT 10SM FEW060 SCT250 36/22 A2988 RMK AO2 SLP118 T03610222
KIAH 192253Z 18005KT 10SM FEW060 SCT250 36/21 A2987 RMK AO2 SLP113 T03610211



Page loaded:  23:04 UTC  |   04:04 PM Pacific  |   05:04 PM Mountain  |   06:04 PM Central  |   07:04 PM Eastern

 

ADVISORIES

FORECASTS

FORECASTS

OBSERVATIONS

USER TOOLS

ABOUT US